createdAt,value
2018-08-18T00:00:25.129Z,99586.66
2018-08-18T00:02:55.753Z,99586.00
2018-08-18T00:05:26.594Z,99576.55
2018-08-18T00:07:57.176Z,99585.30
2018-08-18T00:10:28.199Z,99580.11
2018-08-18T00:12:58.933Z,99580.34
2018-08-18T00:15:29.588Z,99579.87
2018-08-18T00:18:00.301Z,99589.18
2018-08-18T00:20:30.844Z,99594.48
2018-08-18T00:23:01.569Z,99599.19
2018-08-18T00:25:32.404Z,99600.02
2018-08-18T00:28:17.001Z,99598.03
2018-08-18T00:30:49.089Z,99601.23
2018-08-18T00:33:20.769Z,99600.27
2018-08-18T00:35:51.373Z,99602.45
2018-08-18T00:38:22.837Z,99594.99
2018-08-18T00:40:55.157Z,99591.95
2018-08-18T00:43:25.794Z,99588.95
2018-08-18T00:45:57.006Z,99585.20
2018-08-18T00:48:27.617Z,99582.87
2018-08-18T00:50:58.202Z,99591.70
2018-08-18T00:53:29.038Z,99592.44
2018-08-18T00:56:00.997Z,99599.14
2018-08-18T00:58:32.298Z,99585.47
2018-08-18T01:01:02.844Z,99590.95
2018-08-18T01:03:40.548Z,99601.56
2018-08-18T01:06:21.322Z,99593.09
2018-08-18T01:08:56.013Z,99595.44
2018-08-18T01:11:27.289Z,99590.20
2018-08-18T01:13:59.189Z,99591.11
2018-08-18T01:16:30.453Z,99594.19
2018-08-18T01:19:01.053Z,99593.44
2018-08-18T01:21:31.907Z,99594.03
2018-08-18T01:24:02.689Z,99589.23
2018-08-18T01:26:34.713Z,99588.89
2018-08-18T01:29:16.108Z,99595.48
2018-08-18T01:31:47.632Z,99595.44
2018-08-18T01:34:18.481Z,99600.98
2018-08-18T01:36:49.704Z,99593.69
2018-08-18T01:39:22.049Z,99599.14
2018-08-18T01:41:52.600Z,99596.82
2018-08-18T01:44:24.644Z,99593.05
2018-08-18T01:46:55.983Z,99592.50
2018-08-18T01:49:36.385Z,99594.27
2018-08-18T01:52:18.042Z,99602.61
2018-08-18T01:54:48.663Z,99596.55
2018-08-18T01:57:23.196Z,99595.98
2018-08-18T01:59:53.728Z,99601.11
2018-08-18T02:02:27.620Z,99595.14
2018-08-18T02:05:06.850Z,99589.05
2018-08-18T02:07:37.505Z,99594.15
2018-08-18T02:10:08.204Z,99590.31
2018-08-18T02:12:40.097Z,99597.25
2018-08-18T02:15:10.764Z,99596.09
2018-08-18T02:17:41.720Z,99595.67
2018-08-18T02:20:12.265Z,99596.61
2018-08-18T02:22:42.853Z,99601.05
2018-08-18T02:25:13.443Z,99597.06
2018-08-18T02:27:44.872Z,99595.27
2018-08-18T02:30:20.524Z,99603.23
2018-08-18T02:32:51.092Z,99597.34
2018-08-18T02:35:23.201Z,99598.20
2018-08-18T02:37:54.708Z,99596.25
2018-08-18T02:40:25.225Z,99599.00
2018-08-18T02:42:57.249Z,99596.50
2018-08-18T02:45:27.861Z,99602.22
2018-08-18T02:48:13.223Z,99598.09
2018-08-18T02:50:48.953Z,99593.12
2018-08-18T02:53:27.560Z,99595.72
2018-08-18T02:55:58.301Z,99595.98
2018-08-18T02:58:29.029Z,99599.88
2018-08-18T03:00:59.696Z,99602.30
2018-08-18T03:03:30.501Z,99605.23
2018-08-18T03:06:15.357Z,99612.83
2018-08-18T03:08:46.052Z,99610.08
2018-08-18T03:11:16.593Z,99613.05
2018-08-18T03:13:47.098Z,99621.00
2018-08-18T03:16:17.748Z,99618.38
2018-08-18T03:18:52.205Z,99611.70
2018-08-18T03:21:29.556Z,99614.19
2018-08-18T03:24:14.578Z,99612.83
2018-08-18T03:26:47.079Z,99614.92
2018-08-18T03:29:18.181Z,99620.24
2018-08-18T03:31:49.181Z,99611.08
2018-08-18T03:34:19.880Z,99610.36
2018-08-18T03:36:51.560Z,99615.69
2018-08-18T03:39:30.527Z,99623.11
2018-08-18T03:42:02.280Z,99623.89
2018-08-18T03:44:36.200Z,99626.52
2018-08-18T03:47:06.934Z,99626.97
2018-08-18T03:49:37.701Z,99629.52
2018-08-18T03:52:08.289Z,99636.47
2018-08-18T03:54:39.076Z,99647.70
2018-08-18T03:57:09.505Z,99643.23
2018-08-18T03:59:41.357Z,99649.00
2018-08-18T04:02:11.917Z,99655.34
2018-08-18T04:04:42.557Z,99659.92
2018-08-18T04:07:13.150Z,99662.72
2018-08-18T04:09:43.724Z,99668.12
2018-08-18T04:12:14.420Z,99666.73
2018-08-18T04:14:45.090Z,99671.96
2018-08-18T04:17:30.166Z,99670.46
2018-08-18T04:20:00.796Z,99675.19
2018-08-18T04:22:31.691Z,99678.59
2018-08-18T04:25:02.281Z,99674.34
2018-08-18T04:27:47.586Z,99671.22
2018-08-18T04:30:21.192Z,99672.38
2018-08-18T04:32:54.985Z,99674.16
2018-08-18T04:35:26.679Z,99674.53
2018-08-18T04:37:58.338Z,99672.25
2018-08-18T04:40:28.880Z,99673.25
2018-08-18T04:43:01.044Z,99672.73
2018-08-18T04:45:31.657Z,99672.72
2018-08-18T04:48:02.348Z,99672.69
2018-08-18T04:50:32.977Z,99676.77
2018-08-18T04:53:03.685Z,99673.70
2018-08-18T04:55:34.373Z,99675.59
2018-08-18T04:58:05.103Z,99674.59
2018-08-18T05:00:35.713Z,99676.48
2018-08-18T05:03:06.512Z,99672.80
2018-08-18T05:05:37.337Z,99674.86
2018-08-18T05:08:08.081Z,99670.73
2018-08-18T05:10:40.169Z,99670.38
2018-08-18T05:13:12.263Z,99674.88
2018-08-18T05:15:42.944Z,99670.22
2018-08-18T05:18:13.835Z,99663.52
2018-08-18T05:20:44.525Z,99669.97
2018-08-18T05:23:25.957Z,99669.95
2018-08-18T05:25:56.632Z,99674.34
2018-08-18T05:28:27.528Z,99678.12
2018-08-18T05:30:58.153Z,99676.24
2018-08-18T05:33:29.417Z,99677.17
2018-08-18T05:36:00.077Z,99684.48
2018-08-18T05:38:31.025Z,99684.56
2018-08-18T05:41:01.828Z,99682.11
2018-08-18T05:43:32.583Z,99690.09
2018-08-18T05:46:04.956Z,99690.94
2018-08-18T05:48:36.954Z,99688.41
2018-08-18T05:51:07.469Z,99692.93
2018-08-18T05:53:38.166Z,99688.65
2018-08-18T05:56:08.736Z,99690.52
2018-08-18T05:58:54.029Z,99700.85
2018-08-18T06:01:35.461Z,99698.78
2018-08-18T06:04:11.498Z,99702.27
2018-08-18T06:06:44.728Z,99704.19
2018-08-18T06:09:16.401Z,99703.56
2018-08-18T06:11:47.234Z,99709.64
2018-08-18T06:14:18.377Z,99709.13
2018-08-18T06:16:49.013Z,99712.97
2018-08-18T06:19:20.402Z,99720.07
2018-08-18T06:21:51.056Z,99721.66
2018-08-18T06:24:22.246Z,99724.76
2018-08-18T06:26:52.836Z,99724.76
2018-08-18T06:29:23.637Z,99722.10
2018-08-18T06:32:00.752Z,99723.91
2018-08-18T06:34:34.809Z,99729.67
2018-08-18T06:37:05.561Z,99722.59
2018-08-18T06:39:52.865Z,99722.97
2018-08-18T06:42:44.188Z,99724.80
2018-08-18T06:45:17.417Z,99717.70
2018-08-18T06:47:48.584Z,99724.32
2018-08-18T06:50:20.045Z,99725.56
2018-08-18T06:52:50.528Z,99724.88
2018-08-18T06:55:21.417Z,99720.08
2018-08-18T06:57:54.769Z,99716.92
2018-08-18T07:00:26.305Z,99718.45
2018-08-18T07:02:56.974Z,99729.02
2018-08-18T07:05:27.642Z,99725.26
2018-08-18T07:07:58.289Z,99717.34
2018-08-18T07:10:37.705Z,99713.66
2018-08-18T07:13:09.885Z,99721.51
2018-08-18T07:15:41.970Z,99714.08
2018-08-18T07:18:14.118Z,99716.69
2018-08-18T07:20:45.364Z,99710.17
2018-08-18T07:23:16.062Z,99711.37
2018-08-18T07:25:51.818Z,99715.56
2018-08-18T07:28:23.265Z,99710.70
2018-08-18T07:30:54.039Z,99710.06
2018-08-18T07:33:24.841Z,99709.66
2018-08-18T07:35:56.241Z,99706.50
2018-08-18T07:38:26.857Z,99711.10
2018-08-18T07:40:57.729Z,99703.78
2018-08-18T07:43:31.225Z,99708.65
2018-08-18T07:46:09.024Z,99705.07
2018-08-18T07:48:39.649Z,99694.70
2018-08-18T07:51:11.568Z,99692.73
2018-08-18T07:53:42.217Z,99700.99
2018-08-18T07:56:12.688Z,99689.09
2018-08-18T07:58:44.696Z,99688.44
2018-08-18T08:01:15.377Z,99696.09
2018-08-18T08:03:46.045Z,99692.77
2018-08-18T08:06:16.526Z,99694.12
2018-08-18T08:08:49.286Z,99689.91
2018-08-18T08:11:20.049Z,99683.49
2018-08-18T08:13:51.201Z,99684.59
2018-08-18T08:16:21.917Z,99681.77
2018-08-18T08:18:53.098Z,99680.42
2018-08-18T08:21:24.158Z,99676.41
2018-08-18T08:23:57.153Z,99686.32
2018-08-18T08:26:27.901Z,99678.61
2018-08-18T08:28:58.715Z,99684.05
2018-08-18T08:31:29.313Z,99680.59
2018-08-18T08:34:00.045Z,99672.67
2018-08-18T08:36:30.881Z,99665.94
2018-08-18T08:39:02.640Z,99667.05
2018-08-18T08:41:33.909Z,99668.97
2018-08-18T08:44:04.661Z,99670.73
2018-08-18T08:46:35.339Z,99671.41
2018-08-18T08:49:06.328Z,99671.72
2018-08-18T08:51:36.965Z,99660.30
2018-08-18T08:54:08.900Z,99669.63
2018-08-18T08:56:40.088Z,99662.65
2018-08-18T08:59:12.310Z,99665.44
2018-08-18T09:01:42.916Z,99658.22
2018-08-18T09:04:13.680Z,99657.98
2018-08-18T09:06:48.308Z,99655.69
2018-08-18T09:09:19.205Z,99661.09
2018-08-18T09:11:49.858Z,99652.56
2018-08-18T09:14:21.420Z,99655.93
2018-08-18T09:16:52.329Z,99651.06
2018-08-18T09:19:24.692Z,99650.39
2018-08-18T09:21:56.714Z,99652.70
2018-08-18T09:24:30.589Z,99650.56
2018-08-18T09:27:04.404Z,99647.67
2018-08-18T09:29:41.749Z,99640.91
2018-08-18T09:32:12.421Z,99643.75
2018-08-18T09:34:51.168Z,99638.25
2018-08-18T09:37:22.353Z,99635.49
2018-08-18T09:39:53.052Z,99641.78
2018-08-18T09:42:23.796Z,99642.69
2018-08-18T09:44:55.536Z,99636.22
2018-08-18T09:47:26.574Z,99627.21
2018-08-18T09:49:57.044Z,99625.75
2018-08-18T09:52:27.680Z,99628.93
2018-08-18T09:54:58.464Z,99622.66
2018-08-18T09:57:29.116Z,99623.09
2018-08-18T10:00:01.106Z,99627.66
2018-08-18T10:02:31.711Z,99621.96
2018-08-18T10:05:02.424Z,99615.62
2018-08-18T10:07:33.021Z,99617.25
2018-08-18T10:10:05.048Z,99610.44
2018-08-18T10:12:35.774Z,99601.59
2018-08-18T10:15:07.363Z,99606.72
2018-08-18T10:17:37.961Z,99606.98
2018-08-18T10:20:10.465Z,99607.64
2018-08-18T10:22:41.837Z,99607.37
2018-08-18T10:25:12.781Z,99606.73
2018-08-18T10:27:43.455Z,99602.28
2018-08-18T10:30:14.266Z,99600.13
2018-08-18T10:33:01.188Z,99594.59
2018-08-18T10:35:32.293Z,99590.62
2018-08-18T10:38:04.209Z,99589.19
2018-08-18T10:40:34.806Z,99589.37
2018-08-18T10:43:05.346Z,99585.19
2018-08-18T10:45:36.045Z,99583.89
2018-08-18T10:48:06.839Z,99584.91
2018-08-18T10:51:23.345Z,99582.16
2018-08-18T10:53:54.609Z,99586.41
2018-08-18T10:56:26.497Z,99585.05
2018-08-18T10:59:15.993Z,99591.55
2018-08-18T11:02:52.985Z,99580.47
2018-08-18T11:05:24.560Z,99588.13
2018-08-18T11:08:01.036Z,99588.13
2018-08-18T11:10:33.469Z,99582.94
2018-08-18T11:13:04.442Z,99593.92
2018-08-18T11:15:35.189Z,99590.20
2018-08-18T11:24:34.338Z,99581.55
2018-08-18T11:27:05.088Z,99587.09
2018-08-18T11:29:36.134Z,99587.88
2018-08-18T11:32:06.805Z,99571.48
2018-08-18T11:34:37.516Z,99573.42
2018-08-18T11:37:09.021Z,99572.52
2018-08-18T11:39:39.973Z,99576.20
2018-08-18T11:42:10.665Z,99562.34
2018-08-18T11:44:41.284Z,99566.60
2018-08-18T11:47:11.913Z,99564.40
2018-08-18T11:49:43.361Z,99570.61
2018-08-18T11:52:13.966Z,99569.47
2018-08-18T11:54:45.848Z,99559.78
2018-08-18T11:57:16.440Z,99566.77
2018-08-18T11:59:47.130Z,99574.16
2018-08-18T12:02:18.526Z,99567.46
2018-08-18T12:04:49.033Z,99569.39
2018-08-18T12:07:19.809Z,99566.81
2018-08-18T12:09:54.197Z,99566.98
2018-08-18T12:12:24.895Z,99562.53
2018-08-18T12:14:56.153Z,99553.60
2018-08-18T12:17:26.998Z,99553.20
2018-08-18T12:20:02.402Z,99561.06
2018-08-18T12:22:34.290Z,99554.80
2018-08-18T12:25:04.922Z,99554.33
2018-08-18T12:27:35.756Z,99545.64
2018-08-18T12:30:07.050Z,99555.37
2018-08-18T12:32:37.440Z,99549.39
2018-08-18T12:35:08.122Z,99552.77
2018-08-18T12:37:39.203Z,99554.57
2018-08-18T12:40:09.747Z,99549.38
2018-08-18T12:42:41.977Z,99552.23
2018-08-18T12:45:12.625Z,99553.14
2018-08-18T12:47:57.252Z,99552.42
2018-08-18T12:50:27.973Z,99553.94
2018-08-18T12:53:00.169Z,99547.86
2018-08-18T12:55:30.758Z,99536.95
2018-08-18T12:58:01.461Z,99552.79
2018-08-18T13:00:32.181Z,99544.84
2018-08-18T13:03:02.809Z,99538.83
2018-08-18T13:05:33.550Z,99539.28
2018-08-18T13:08:04.330Z,99542.27
2018-08-18T13:10:35.018Z,99535.37
2018-08-18T13:13:06.572Z,99541.41
2018-08-18T13:15:37.064Z,99541.30
2018-08-18T13:18:09.052Z,99534.39
2018-08-18T13:20:39.474Z,99538.80
2018-08-18T13:23:10.508Z,99530.30
2018-08-18T13:25:41.098Z,99541.87
2018-08-18T13:28:12.995Z,99532.89
2018-08-18T13:30:43.798Z,99537.33
2018-08-18T13:33:14.616Z,99526.44
2018-08-18T13:35:45.360Z,99526.17
2018-08-18T13:38:28.752Z,99527.34
2018-08-18T13:40:59.393Z,99526.58
2018-08-18T13:43:44.932Z,99521.28
2018-08-18T13:46:17.612Z,99515.78
2018-08-18T13:48:54.173Z,99520.84
2018-08-18T13:51:25.025Z,99519.48
2018-08-18T13:53:56.368Z,99510.60
2018-08-18T13:56:28.306Z,99515.27
2018-08-18T13:58:59.318Z,99517.78
2018-08-18T14:01:38.534Z,99517.30
2018-08-18T14:04:16.229Z,99519.73
2018-08-18T14:06:53.772Z,99519.54
2018-08-18T14:09:24.517Z,99514.84
2018-08-18T14:12:02.489Z,99517.58
2018-08-18T14:14:33.136Z,99510.84
2018-08-18T14:17:03.825Z,99507.43
2018-08-18T14:19:34.654Z,99511.36
2018-08-18T14:22:07.909Z,99513.23
2018-08-18T14:24:40.516Z,99513.17
2018-08-18T14:27:16.561Z,99511.30
2018-08-18T14:29:47.224Z,99515.83
2018-08-18T14:32:28.953Z,99513.17
2018-08-18T14:35:07.364Z,99517.81
2018-08-18T14:37:42.573Z,99512.05
2018-08-18T14:40:17.915Z,99517.58
2018-08-18T14:42:49.822Z,99518.15
2018-08-18T14:45:21.877Z,99520.17
2018-08-18T14:47:52.664Z,99516.66
2018-08-18T14:50:26.476Z,99522.25
2018-08-18T14:52:57.049Z,99520.98
2018-08-18T14:55:27.708Z,99523.78
2018-08-18T14:58:00.969Z,99523.05
2018-08-18T15:00:32.900Z,99523.92
2018-08-18T15:03:03.705Z,99513.66
2018-08-18T15:05:34.524Z,99515.80
2018-08-18T15:08:05.621Z,99514.23
2018-08-18T15:10:45.521Z,99521.92
2018-08-18T15:13:16.843Z,99520.49
2018-08-18T15:15:47.662Z,99520.28
2018-08-18T15:18:18.568Z,99521.25
2018-08-18T15:20:49.513Z,99524.34
2018-08-18T15:23:20.076Z,99522.90
2018-08-18T15:25:51.979Z,99529.34
2018-08-18T15:28:22.697Z,99531.36
2018-08-18T15:30:54.884Z,99531.73
2018-08-18T15:33:27.074Z,99532.36
2018-08-18T15:35:59.157Z,99529.34
2018-08-18T15:38:44.629Z,99528.74
2018-08-18T15:41:15.446Z,99525.72
2018-08-18T15:43:46.020Z,99530.22
2018-08-18T15:46:16.657Z,99531.73
2018-08-18T15:48:47.416Z,99528.79
2018-08-18T15:51:18.298Z,99532.11
2018-08-18T15:53:54.019Z,99532.12
2018-08-18T15:56:25.769Z,99534.34
2018-08-18T15:58:57.275Z,99524.38
2018-08-18T16:01:32.756Z,99527.02
2018-08-18T16:04:04.441Z,99533.66
2018-08-18T16:06:36.377Z,99532.90
2018-08-18T16:09:09.597Z,99531.09
2018-08-18T16:11:40.384Z,99528.29
2018-08-18T16:14:10.941Z,99525.84
2018-08-18T16:16:58.466Z,99528.83
2018-08-18T16:19:32.869Z,99534.31
2018-08-18T16:22:05.132Z,99536.41
2018-08-18T16:24:45.981Z,99537.04
2018-08-18T16:27:16.642Z,99537.17
2018-08-18T16:29:47.266Z,99542.23
2018-08-18T16:32:25.635Z,99541.23
2018-08-18T16:35:02.599Z,99548.09
2018-08-18T16:37:36.172Z,99547.13
2018-08-18T16:40:07.170Z,99550.80
2018-08-18T16:42:37.867Z,99559.44
2018-08-18T16:45:08.570Z,99557.39
2018-08-18T16:47:41.761Z,99558.67
2018-08-18T16:50:12.260Z,99570.58
2018-08-18T16:52:44.177Z,99572.06
2018-08-18T16:55:16.572Z,99571.49
2018-08-18T16:57:47.288Z,99580.30
2018-08-18T17:00:18.102Z,99583.47
2018-08-18T17:02:48.956Z,99586.44
2018-08-18T17:05:19.674Z,99589.75
2018-08-18T17:07:50.586Z,99594.70
2018-08-18T17:10:21.249Z,99595.63
2018-08-18T17:12:51.976Z,99594.50
2018-08-18T17:15:22.597Z,99601.55
2018-08-18T17:17:53.390Z,99604.05
2018-08-18T17:20:23.970Z,99612.83
2018-08-18T17:22:54.825Z,99610.08
2018-08-18T17:25:29.282Z,99610.63
2018-08-18T17:28:00.037Z,99610.63
2018-08-18T17:30:30.698Z,99610.36
2018-08-18T17:33:01.901Z,99615.94
2018-08-18T17:35:32.604Z,99616.45
2018-08-18T17:38:05.192Z,99622.13
2018-08-18T17:40:35.818Z,99623.88
2018-08-18T17:43:07.694Z,99632.47
2018-08-18T17:45:43.136Z,99630.71
2018-08-18T17:48:13.781Z,99639.34
2018-08-18T17:50:44.372Z,99645.88
2018-08-18T17:53:15.837Z,99645.23
2018-08-18T17:55:52.948Z,99640.37
2018-08-18T17:58:23.838Z,99645.41
2018-08-18T18:00:54.552Z,99649.52
2018-08-18T18:03:25.533Z,99652.36
2018-08-18T18:05:57.124Z,99654.69
2018-08-18T18:08:28.595Z,99669.84
2018-08-18T18:10:59.506Z,99670.67
2018-08-18T18:13:30.945Z,99675.38
2018-08-18T18:16:01.548Z,99681.75
2018-08-18T18:18:46.604Z,99688.84
2018-08-18T18:21:17.077Z,99689.80
2018-08-18T18:23:47.969Z,99692.45
2018-08-18T18:26:18.509Z,99694.86
2018-08-18T18:28:49.273Z,99696.81
2018-08-18T18:31:19.853Z,99700.28
2018-08-18T18:33:55.530Z,99705.91
2018-08-18T18:36:26.249Z,99708.16
2018-08-18T18:38:58.199Z,99707.36
2018-08-18T18:41:28.852Z,99702.80
2018-08-18T18:44:04.376Z,99706.68
2018-08-18T18:46:35.018Z,99702.38
2018-08-18T18:49:24.386Z,99712.23
2018-08-18T18:51:55.092Z,99708.75
2018-08-18T18:54:25.939Z,99708.48
2018-08-18T18:56:56.677Z,99710.55
2018-08-18T18:59:28.034Z,99702.55
2018-08-18T19:01:59.245Z,99706.45
2018-08-18T19:04:29.918Z,99710.98
2018-08-18T19:07:05.300Z,99707.73
2018-08-18T19:09:36.150Z,99716.89
2018-08-18T19:12:06.914Z,99717.26
2018-08-18T19:14:38.844Z,99715.56
2018-08-18T19:17:09.493Z,99715.95
2018-08-18T19:19:41.642Z,99721.70
2018-08-18T19:22:12.237Z,99721.00
2018-08-18T19:24:42.880Z,99722.03
2018-08-18T19:27:13.478Z,99718.45
2018-08-18T19:29:44.172Z,99722.52
2018-08-18T19:32:14.700Z,99716.22
2018-08-18T19:34:45.681Z,99719.78
2018-08-18T19:37:16.178Z,99715.08
2018-08-18T19:39:47.185Z,99716.16
2018-08-18T19:42:18.084Z,99724.85
2018-08-18T19:44:50.684Z,99717.41
2018-08-18T19:47:36.281Z,99718.75
2018-08-18T19:50:09.153Z,99724.92
2018-08-18T19:52:39.765Z,99724.98
2018-08-18T19:55:13.729Z,99726.86
2018-08-18T19:57:44.276Z,99733.34
2018-08-18T20:00:21.737Z,99734.52
2018-08-18T20:03:03.389Z,99739.98
2018-08-18T20:05:34.277Z,99739.66
2018-08-18T20:08:04.907Z,99741.06
2018-08-18T20:10:49.009Z,99742.57
2018-08-18T20:13:24.922Z,99750.08
2018-08-18T20:15:57.137Z,99751.34
2018-08-18T20:18:27.698Z,99759.09
2018-08-18T20:21:00.391Z,99763.73
2018-08-18T20:23:31.239Z,99767.83
2018-08-18T20:26:02.898Z,99771.52
2018-08-18T20:28:34.189Z,99773.16
2018-08-18T20:31:04.925Z,99767.55
2018-08-18T20:33:35.549Z,99767.60
2018-08-18T20:36:06.233Z,99773.19
2018-08-18T20:38:43.717Z,99778.95
2018-08-18T20:41:14.741Z,99780.59
2018-08-18T20:43:47.701Z,99781.30
2018-08-18T20:46:18.474Z,99779.52
2018-08-18T20:48:48.738Z,99784.53
2018-08-18T20:51:23.162Z,99781.41
2018-08-18T20:53:53.526Z,99787.42
2018-08-18T20:56:23.979Z,99781.79
2018-08-18T20:58:54.740Z,99789.55
2018-08-18T21:01:25.556Z,99794.36
2018-08-18T21:03:56.609Z,99799.59
2018-08-18T21:06:28.749Z,99804.98
2018-08-18T21:08:59.598Z,99805.32
2018-08-18T21:11:30.436Z,99804.91
2018-08-18T21:14:01.201Z,99810.76
2018-08-18T21:16:31.891Z,99817.13
2018-08-18T21:19:02.681Z,99819.59
2018-08-18T21:21:36.766Z,99822.94
2018-08-18T21:24:07.539Z,99818.23
2018-08-18T21:26:39.018Z,99829.66
2018-08-18T21:29:09.855Z,99824.61
2018-08-18T21:31:40.499Z,99831.30
2018-08-18T21:34:11.269Z,99837.80
2018-08-18T21:36:42.237Z,99831.20
2018-08-18T21:39:12.844Z,99833.72
2018-08-18T21:41:45.101Z,99829.55
2018-08-18T21:44:16.300Z,99829.67
2018-08-18T21:46:47.797Z,99828.80
2018-08-18T21:49:18.228Z,99837.09
2018-08-18T21:51:48.854Z,99837.94
2018-08-18T21:54:19.469Z,99838.95
2018-08-18T21:56:59.405Z,99839.58
2018-08-18T21:59:52.212Z,99845.50
2018-08-18T22:02:41.212Z,99842.13
2018-08-18T22:05:14.657Z,99849.91
2018-08-18T22:07:51.732Z,99847.82
2018-08-18T22:10:22.719Z,99845.14
2018-08-18T22:12:53.564Z,99857.61
2018-08-18T22:15:24.269Z,99857.50
2018-08-18T22:17:55.186Z,99858.21
2018-08-18T22:20:25.783Z,99856.09
2018-08-18T22:22:56.646Z,99858.15
2018-08-18T22:25:27.240Z,99862.16
2018-08-18T22:27:58.149Z,99863.44
2018-08-18T22:30:29.128Z,99862.80
2018-08-18T22:33:01.442Z,99858.83
2018-08-18T22:35:32.229Z,99863.89
2018-08-18T22:38:04.259Z,99864.44
2018-08-18T22:40:37.041Z,99865.61
2018-08-18T22:43:07.985Z,99864.68
2018-08-18T22:45:39.109Z,99861.57
2018-08-18T22:48:11.025Z,99865.69
2018-08-18T22:50:41.409Z,99868.36
2018-08-18T22:53:16.180Z,99863.44
2018-08-18T22:55:46.945Z,99856.31
2018-08-18T22:58:17.546Z,99858.66
2018-08-18T23:00:51.557Z,99853.70
2018-08-18T23:03:22.113Z,99848.97
2018-08-18T23:05:52.641Z,99849.15
2018-08-18T23:08:23.493Z,99843.55
2018-08-18T23:10:54.013Z,99843.64
2018-08-18T23:13:52.425Z,99834.69
2018-08-18T23:16:22.935Z,99837.53
2018-08-18T23:18:53.721Z,99838.16
2018-08-18T23:21:29.032Z,99849.78
2018-08-18T23:24:02.125Z,99852.66
2018-08-18T23:26:32.862Z,99851.13
2018-08-18T23:29:03.629Z,99856.02
2018-08-18T23:31:34.365Z,99860.30
2018-08-18T23:34:05.108Z,99859.34
2018-08-18T23:36:35.845Z,99856.93
2018-08-18T23:39:08.712Z,99855.64
2018-08-18T23:41:39.361Z,99849.48
2018-08-18T23:44:09.983Z,99846.03
2018-08-18T23:46:40.573Z,99849.48
2018-08-18T23:49:11.313Z,99840.30
2018-08-18T23:51:43.066Z,99843.69
2018-08-18T23:54:18.645Z,99849.25
2018-08-18T23:56:49.445Z,99848.55
2018-08-18T23:59:21.529Z,99847.30
